Time;durP1;ratioP1;P1;durP2;ratioP2;P2;SDS_P1;SDS_P2;PMS_P1;PMS_P2;Temp;Humidity;BMP_temperature;BMP_pressure;BME280_temperature;BME280_humidity;BME280_pressure;Samples;Min_cycle;Max_cycle;Signal;HPM_P1;HPM_P2
2024/04/16 00:00:40;;;;;;;4.00;1.07;;;;;;;6.90;100.00;99290.78;5529132;26;20450;-70
2024/04/16 00:03:06;;;;;;;2.30;0.60;;;;;;;6.92;100.00;99303.94;5528692;25;20467;-70
2024/04/16 00:05:35;;;;;;;2.20;0.60;;;;;;;6.88;100.00;99303.75;5528999;26;20451;-70
2024/04/16 00:08:01;;;;;;;2.30;0.70;;;;;;;6.90;100.00;99301.53;5549361;25;20481;-70
2024/04/16 00:10:29;;;;;;;2.77;1.10;;;;;;;6.87;100.00;99294.09;5554710;25;20514;-70
2024/04/16 00:12:55;;;;;;;2.83;1.03;;;;;;;6.90;100.00;99296.16;5561642;25;21032;-69
2024/04/16 00:15:24;;;;;;;2.53;0.93;;;;;;;6.87;100.00;99310.25;5565260;25;20520;-71
2024/04/16 00:17:52;;;;;;;3.80;1.37;;;;;;;6.89;100.00;99304.56;5565090;25;20235;-70
2024/04/16 00:20:21;;;;;;;2.60;0.80;;;;;;;6.94;100.00;99304.41;5536166;25;20518;-70
2024/04/16 00:22:47;;;;;;;2.20;0.50;;;;;;;6.91;100.00;99299.66;5551376;25;20477;-68
2024/04/16 00:25:15;;;;;;;3.10;1.30;;;;;;;6.90;100.00;99304.22;5558089;25;20543;-69
2024/04/16 00:27:42;;;;;;;5.50;1.57;;;;;;;6.90;100.00;99309.63;5566075;25;20221;-69
2024/04/16 00:30:10;;;;;;;2.80;1.40;;;;;;;6.94;100.00;99302.50;5540378;25;20534;-73
2024/04/16 00:32:36;;;;;;;2.40;0.97;;;;;;;6.96;100.00;99296.84;5566251;25;20524;-70
2024/04/16 00:35:08;;;;;;;3.50;1.00;;;;;;;7.00;100.00;99303.19;5565131;25;20454;-72
2024/04/16 00:37:33;;;;;;;3.00;0.80;;;;;;;7.00;100.00;99308.59;5566091;25;20217;-72
2024/04/16 00:40:01;;;;;;;2.37;0.87;;;;;;;7.01;100.00;99304.78;5545810;25;20549;-72
2024/04/16 00:42:27;;;;;;;2.30;0.70;;;;;;;7.06;100.00;99307.34;5557554;25;20249;-72
2024/04/16 00:44:55;;;;;;;5.50;1.30;;;;;;;7.08;99.37;99311.31;5562039;25;20529;-71
2024/04/16 00:47:21;;;;;;;2.10;0.40;;;;;;;7.10;98.26;99318.28;5528418;26;20222;-72
2024/04/16 00:49:50;;;;;;;2.50;0.87;;;;;;;7.11;98.67;99304.50;5554758;25;20515;-72
2024/04/16 00:52:18;;;;;;;4.03;1.63;;;;;;;7.14;97.37;99298.50;5556581;25;20462;-72
2024/04/16 00:54:47;;;;;;;4.17;1.63;;;;;;;7.10;96.98;99313.69;5533395;25;20463;-71
2024/04/16 00:57:13;;;;;;;3.03;1.27;;;;;;;7.12;96.39;99303.41;5528541;25;21098;-71
2024/04/16 00:59:42;;;;;;;2.67;1.07;;;;;;;7.08;96.34;99303.25;5528320;25;20458;-70
2024/04/16 01:02:08;;;;;;;3.13;1.13;;;;;;;7.08;96.80;99311.31;5548843;25;20537;-71
2024/04/16 01:04:36;;;;;;;3.17;1.40;;;;;;;7.10;95.00;99315.59;5565423;25;20878;-71
2024/04/16 01:07:03;;;;;;;4.03;1.73;;;;;;;7.03;96.21;99308.75;5565801;25;20441;-73
2024/04/16 01:09:34;;;;;;;2.77;0.83;;;;;;;7.02;93.28;99314.44;5564356;25;20461;-71
2024/04/16 01:12:00;;;;;;;6.97;1.67;;;;;;;6.94;95.25;99321.34;5549359;25;20519;-71
2024/04/16 01:14:28;;;;;;;3.57;1.20;;;;;;;6.86;95.24;99324.00;5554941;25;20471;-71
2024/04/16 01:16:54;;;;;;;2.83;1.00;;;;;;;6.87;97.04;99325.59;5559481;25;20237;-71
2024/04/16 01:19:22;;;;;;;2.37;0.70;;;;;;;6.92;94.19;99328.16;5564455;25;21137;-71
2024/04/16 01:21:48;;;;;;;6.77;1.80;;;;;;;6.87;96.06;99337.16;5563591;25;20510;-71
2024/04/16 01:24:20;;;;;;;9.93;0.83;;;;;;;6.90;96.51;99333.03;5557263;25;20469;-71
2024/04/16 01:26:46;;;;;;;2.80;1.10;;;;;;;6.97;96.76;99344.19;5544549;25;20795;-72
2024/04/16 01:29:14;;;;;;;3.60;1.47;;;;;;;6.95;94.90;99338.31;5527787;26;20458;-70
2024/04/16 01:31:40;;;;;;;2.50;0.70;;;;;;;6.98;93.83;99346.56;5527589;25;20578;-72
2024/04/16 01:34:08;;;;;;;3.47;0.83;;;;;;;6.98;94.02;99338.47;5536760;25;20510;-68
2024/04/16 01:36:34;;;;;;;3.23;1.43;;;;;;;7.06;94.68;99340.44;5549786;25;20736;-69
2024/04/16 01:39:02;;;;;;;2.93;1.00;;;;;;;7.07;94.51;99336.63;5535970;25;20533;-68
2024/04/16 01:41:30;;;;;;;3.10;1.30;;;;;;;7.09;94.39;99344.41;5548275;25;20292;-68
2024/04/16 01:43:59;;;;;;;3.90;2.40;;;;;;;7.10;93.51;99334.44;5546379;25;20527;-68
2024/04/16 01:46:24;;;;;;;3.60;1.30;;;;;;;7.06;94.95;99347.72;5563873;25;21004;-68
2024/04/16 01:48:53;;;;;;;4.30;1.97;;;;;;;7.09;95.36;99339.03;5533116;25;20516;-70
2024/04/16 01:51:18;;;;;;;3.23;1.40;;;;;;;7.10;94.70;99334.44;5527531;26;20222;-68
2024/04/16 01:53:47;;;;;;;9.17;1.17;;;;;;;7.12;94.71;99337.59;5552514;25;20466;-69
2024/04/16 01:56:12;;;;;;;2.63;0.90;;;;;;;7.13;94.66;99334.63;5535803;25;20237;-68
2024/04/16 01:58:43;;;;;;;3.60;1.47;;;;;;;7.11;94.53;99336.81;5552091;25;20519;-68
2024/04/16 02:01:09;;;;;;;3.07;1.10;;;;;;;7.04;94.07;99342.66;5564791;25;20217;-70
2024/04/16 02:03:37;;;;;;;4.63;1.70;;;;;;;7.07;92.70;99343.91;5561573;25;21078;-68
2024/04/16 02:06:05;;;;;;;2.30;0.80;;;;;;;7.04;92.36;99333.78;5564618;25;20457;-68
2024/04/16 02:08:33;;;;;;;3.97;1.70;;;;;;;7.04;91.54;99331.88;5551746;25;20518;-69
2024/04/16 02:10:59;;;;;;;2.53;0.90;;;;;;;7.05;92.26;99332.69;5546310;25;20521;-68
2024/04/16 02:13:28;;;;;;;9.63;1.23;;;;;;;7.05;93.12;99346.13;5553189;25;20463;-68
2024/04/16 02:15:57;;;;;;;4.00;1.60;;;;;;;7.10;93.10;99335.25;5550946;25;20530;-69
2024/04/16 02:18:25;;;;;;;2.63;1.13;;;;;;;7.08;93.16;99340.94;5563698;25;20513;-68
2024/04/16 02:20:51;;;;;;;4.43;1.67;;;;;;;7.03;92.44;99327.59;5532047;25;20474;-68
2024/04/16 02:23:19;;;;;;;3.53;1.47;;;;;;;7.02;93.50;99336.78;5551916;25;20517;-69
2024/04/16 02:25:48;;;;;;;21.97;2.20;;;;;;;7.03;93.06;99329.47;5536369;25;20340;-68
2024/04/16 02:28:16;;;;;;;3.47;1.70;;;;;;;6.97;94.01;99334.22;5563115;25;20888;-68
2024/04/16 02:30:42;;;;;;;3.37;1.33;;;;;;;6.95;93.83;99339.13;5564201;25;20502;-68
2024/04/16 02:33:16;;;;;;;3.70;1.73;;;;;;;6.96;92.70;99337.22;5563183;25;20997;-68
2024/04/16 02:35:42;;;;;;;7.53;1.50;;;;;;;6.88;94.01;99319.13;5562984;25;20232;-68
2024/04/16 02:38:10;;;;;;;5.57;2.03;;;;;;;6.80;92.61;99326.81;5531748;25;20451;-68
2024/04/16 02:40:38;;;;;;;4.77;2.30;;;;;;;6.74;92.10;99332.66;5529469;25;20217;-68
2024/04/16 02:43:04;;;;;;;4.10;1.53;;;;;;;6.65;94.13;99321.81;5529090;25;20475;-68
2024/04/16 02:45:32;;;;;;;3.90;0.80;;;;;;;6.53;95.09;99326.94;5508385;20;20549;-68
2024/04/16 02:47:58;;;;;;;3.20;1.40;;;;;;;6.50;96.30;99311.41;5444423;26;20267;-68
2024/04/16 02:50:29;;;;;;;2.87;1.10;;;;;;;6.49;94.69;99320.59;5478420;26;20465;-68
2024/04/16 02:52:54;;;;;;;2.30;0.80;;;;;;;6.41;94.49;99313.25;5464816;26;20289;-68
2024/04/16 02:55:24;;;;;;;3.10;1.17;;;;;;;6.37;95.28;99315.72;5482444;26;20464;-68
2024/04/16 02:57:50;;;;;;;4.73;0.90;;;;;;;6.31;94.50;99315.06;5482881;26;20322;-68
2024/04/16 03:00:18;;;;;;;3.90;1.00;;;;;;;6.31;94.80;99314.28;5481464;26;20480;-68
2024/04/16 03:02:44;;;;;;;4.93;1.30;;;;;;;6.32;97.06;99305.09;5481583;26;20708;-68
2024/04/16 03:05:13;;;;;;;4.93;1.53;;;;;;;6.34;97.03;99315.56;5482321;26;20520;-68
2024/04/16 03:07:43;;;;;;;2.50;0.90;;;;;;;6.41;96.33;99315.94;5482532;26;20223;-68
2024/04/16 03:10:15;;;;;;;2.83;1.10;;;;;;;6.46;97.45;99311.25;5481860;26;20468;-68
2024/04/16 03:12:41;;;;;;;2.80;1.20;;;;;;;6.54;97.02;99307.00;5481376;26;20480;-67
2024/04/16 03:15:10;;;;;;;2.60;1.17;;;;;;;6.57;95.11;99301.81;5481746;26;20476;-68
2024/04/16 03:17:36;;;;;;;2.70;0.80;;;;;;;6.55;94.85;99303.22;5482722;26;20502;-68
2024/04/16 03:20:05;;;;;;;4.43;1.67;;;;;;;6.58;95.93;99308.00;5481003;26;20461;-68
2024/04/16 03:22:31;;;;;;;5.90;1.53;;;;;;;6.57;95.18;99307.19;5482502;26;20516;-68
2024/04/16 03:25:01;;;;;;;2.60;1.00;;;;;;;6.59;93.66;99304.19;5480586;26;20464;-68
2024/04/16 03:27:27;;;;;;;5.03;2.07;;;;;;;6.60;93.99;99308.50;5481248;26;20243;-68
2024/04/16 03:29:55;;;;;;;2.93;1.00;;;;;;;6.58;94.37;99303.41;5482126;26;20804;-68
2024/04/16 03:32:21;;;;;;;6.30;2.07;;;;;;;6.59;92.14;99301.50;5482425;26;20215;-67
2024/04/16 03:34:49;;;;;;;3.47;1.73;;;;;;;6.64;93.24;99311.34;5481760;26;20782;-67
2024/04/16 03:37:19;;;;;;;3.23;1.53;;;;;;;6.63;92.05;99305.16;5480893;26;20243;-67
2024/04/16 03:39:48;;;;;;;3.80;1.73;;;;;;;6.62;92.09;99306.28;5481835;26;20464;-68
2024/04/16 03:42:19;;;;;;;7.10;0.83;;;;;;;6.66;93.25;99309.16;5481404;26;20500;-68
2024/04/16 03:44:44;;;;;;;2.40;0.90;;;;;;;6.78;93.62;99310.19;5481144;26;20472;-67
2024/04/16 03:47:13;;;;;;;3.07;0.97;;;;;;;6.77;91.14;99300.53;5480894;26;20464;-70
2024/04/16 03:49:38;;;;;;;3.07;1.47;;;;;;;6.73;90.54;99304.94;5480764;26;20735;-68
2024/04/16 03:52:07;;;;;;;2.87;1.10;;;;;;;6.71;91.93;99309.03;5481276;26;20516;-68
2024/04/16 03:54:33;;;;;;;2.47;0.97;;;;;;;6.74;92.39;99301.16;5481137;26;20680;-68
2024/04/16 03:57:02;;;;;;;2.17;0.70;;;;;;;6.75;92.19;99305.41;5480683;26;21079;-69
2024/04/16 03:59:37;;;;;;;8.47;1.93;;;;;;;6.75;90.37;99296.56;5480826;26;20515;-68
2024/04/16 04:02:06;;;;;;;2.67;0.90;;;;;;;6.74;91.92;99301.16;5481374;26;20468;-68
2024/04/16 04:04:32;;;;;;;2.30;0.77;;;;;;;6.78;91.12;99304.81;5480387;26;20477;-68
2024/04/16 04:07:00;;;;;;;2.17;0.67;;;;;;;6.80;91.26;99299.13;5481531;26;20967;-68
2024/04/16 04:09:26;;;;;;;13.90;1.23;;;;;;;6.82;92.84;99300.41;5480406;26;20521;-68
2024/04/16 04:11:54;;;;;;;2.20;0.67;;;;;;;6.89;93.60;99304.56;5481304;26;20464;-68
2024/04/16 04:14:20;;;;;;;2.10;0.60;;;;;;;6.88;90.51;99305.66;5480282;26;20807;-68
2024/04/16 04:16:51;;;;;;;2.77;1.00;;;;;;;6.86;90.36;99297.09;5480626;26;20468;-68
2024/04/16 04:19:16;;;;;;;2.40;0.80;;;;;;;6.79;90.37;99308.28;5481028;26;20239;-68
2024/04/16 04:21:44;;;;;;;2.47;0.80;;;;;;;6.77;90.78;99305.09;5480285;26;20461;-69
2024/04/16 04:24:15;;;;;;;2.70;1.03;;;;;;;6.70;92.42;99302.06;5480704;26;20259;-68
2024/04/16 04:26:43;;;;;;;2.00;0.30;;;;;;;6.67;90.83;99310.75;5481017;26;20810;-68
2024/04/16 04:29:09;;;;;;;3.60;1.23;;;;;;;6.62;93.68;99297.41;5480323;26;20468;-68
2024/04/16 04:31:37;;;;;;;2.93;1.30;;;;;;;6.67;94.29;99303.47;5480667;26;21083;-68
2024/04/16 04:34:05;;;;;;;2.77;1.03;;;;;;;6.76;93.41;99298.13;5480653;26;20243;-68
2024/04/16 04:36:35;;;;;;;3.03;1.40;;;;;;;6.79;91.57;99305.59;5480510;26;20584;-68
2024/04/16 04:39:01;;;;;;;3.70;1.07;;;;;;;6.82;92.17;99289.63;5476085;26;20522;-68
2024/04/16 04:41:29;;;;;;;2.63;0.83;;;;;;;6.85;92.01;99295.50;5480817;26;20540;-68
2024/04/16 04:43:55;;;;;;;2.20;0.67;;;;;;;6.91;90.30;99296.97;5480781;26;20255;-68
2024/04/16 04:46:23;;;;;;;2.60;0.90;;;;;;;6.88;90.45;99292.19;5481461;26;20580;-69
2024/04/16 04:48:49;;;;;;;2.30;0.90;;;;;;;6.91;90.03;99305.06;5479850;26;20739;-69
2024/04/16 04:51:20;;;;;;;4.10;1.00;;;;;;;6.95;91.84;99308.69;5481396;26;20508;-70
2024/04/16 04:53:45;;;;;;;2.70;0.93;;;;;;;6.95;90.51;99311.38;5480879;26;20293;-70
2024/04/16 04:56:13;;;;;;;2.63;1.03;;;;;;;6.91;93.40;99300.47;5480671;26;20528;-69
2024/04/16 04:58:39;;;;;;;2.30;0.87;;;;;;;6.87;95.50;99310.25;5479638;26;20346;-71
2024/04/16 05:01:07;;;;;;;2.40;0.80;;;;;;;6.78;95.01;99307.50;5476620;26;20480;-70
2024/04/16 05:03:33;;;;;;;3.07;1.17;;;;;;;6.70;96.73;99313.63;5458514;26;20235;-70
2024/04/16 05:06:01;;;;;;;3.23;1.23;;;;;;;6.61;98.52;99320.03;5480757;26;21046;-69
2024/04/16 05:08:29;;;;;;;2.30;0.70;;;;;;;6.55;100.00;99322.88;5480583;26;20278;-69
2024/04/16 05:10:58;;;;;;;2.53;0.87;;;;;;;6.46;100.00;99321.19;5481071;26;20517;-68
2024/04/16 05:13:23;;;;;;;7.50;1.93;;;;;;;6.42;100.00;99325.56;5459057;26;20525;-69
2024/04/16 05:15:52;;;;;;;4.20;1.53;;;;;;;6.42;100.00;99328.28;5480885;26;20827;-69
2024/04/16 05:18:18;;;;;;;2.50;1.20;;;;;;;6.39;100.00;99321.63;5480762;26;20223;-69
2024/04/16 05:20:49;;;;;;;3.00;1.30;;;;;;;6.45;100.00;99314.22;5480572;26;21032;-69
2024/04/16 05:23:15;;;;;;;2.10;0.53;;;;;;;6.46;100.00;99321.19;5480966;25;20564;-68
2024/04/16 05:25:54;;;;;;;3.13;1.37;;;;;;;6.43;100.00;99313.75;5480706;26;20460;-69
2024/04/16 05:28:20;;;;;;;2.67;0.87;;;;;;;6.47;100.00;99328.19;5479856;26;20258;-69
2024/04/16 05:30:49;;;;;;;3.63;1.60;;;;;;;6.45;100.00;99323.06;5480821;26;20571;-68
2024/04/16 05:33:15;;;;;;;2.53;1.17;;;;;;;6.54;100.00;99317.78;5480534;26;20461;-68
2024/04/16 05:35:43;;;;;;;2.57;1.03;;;;;;;6.60;100.00;99310.38;5480120;26;20878;-69
2024/04/16 05:38:08;;;;;;;3.70;1.20;;;;;;;6.66;100.00;99312.63;5480405;26;20219;-68
2024/04/16 05:40:37;;;;;;;2.40;1.00;;;;;;;6.71;100.00;99314.41;5480182;26;20509;-68
2024/04/16 05:43:05;;;;;;;2.30;0.90;;;;;;;6.74;100.00;99314.59;5480760;26;20231;-68
2024/04/16 05:45:33;;;;;;;2.27;0.73;;;;;;;6.74;100.00;99313.81;5480362;26;20465;-68
2024/04/16 05:47:59;;;;;;;2.10;0.60;;;;;;;6.78;100.00;99323.66;5480143;26;20460;-68
2024/04/16 05:50:27;;;;;;;3.50;1.60;;;;;;;6.87;100.00;99325.59;5479878;26;20520;-68
2024/04/16 05:52:53;;;;;;;2.90;0.80;;;;;;;6.91;100.00;99326.59;5480008;26;20231;-69
2024/04/16 05:55:21;;;;;;;2.43;0.87;;;;;;;6.91;100.00;99330.06;5480741;26;20504;-68
2024/04/16 05:57:47;;;;;;;3.33;1.20;;;;;;;6.86;100.00;99329.38;5480500;26;20232;-69
2024/04/16 06:00:18;;;;;;;2.90;0.60;;;;;;;6.75;100.00;99324.25;5479963;26;20557;-69
2024/04/16 06:02:44;;;;;;;2.30;0.90;;;;;;;6.62;100.00;99327.81;5479563;26;20297;-69
2024/04/16 06:05:13;;;;;;;2.10;0.57;;;;;;;6.58;100.00;99318.75;5480129;26;20456;-69
2024/04/16 06:07:39;;;;;;;2.60;0.87;;;;;;;6.60;100.00;99311.19;5479789;26;20774;-68
2024/04/16 06:10:08;;;;;;;2.47;0.63;;;;;;;6.70;100.00;99318.22;5479942;26;20674;-69
2024/04/16 06:12:33;;;;;;;2.37;0.87;;;;;;;6.80;100.00;99321.44;5479516;26;20227;-68
2024/04/16 06:15:02;;;;;;;2.83;0.67;;;;;;;6.84;100.00;99321.63;5479966;26;20505;-69
2024/04/16 06:17:30;;;;;;;3.10;1.13;;;;;;;6.82;100.00;99319.25;5479661;26;20220;-68
2024/04/16 06:19:58;;;;;;;2.50;0.90;;;;;;;6.78;100.00;99320.16;5479275;26;20512;-68
2024/04/16 06:22:24;;;;;;;3.20;1.20;;;;;;;6.69;100.00;99316.63;5480928;26;20508;-68
2024/04/16 06:24:52;;;;;;;2.20;0.70;;;;;;;6.63;100.00;99315.94;5516092;25;20467;-69
2024/04/16 06:27:18;;;;;;;3.03;1.27;;;;;;;6.65;100.00;99319.13;5515763;26;20257;-68
2024/04/16 06:29:46;;;;;;;2.77;1.20;;;;;;;6.74;100.00;99316.50;5489364;25;20802;-68
2024/04/16 06:32:12;;;;;;;4.63;1.57;;;;;;;6.76;100.00;99320.47;5479392;26;20646;-68
2024/04/16 06:34:43;;;;;;;2.50;0.93;;;;;;;6.82;100.00;99319.25;5479527;26;20512;-68
2024/04/16 06:37:08;;;;;;;2.67;0.80;;;;;;;6.86;100.00;99318.63;5479462;26;20223;-68
2024/04/16 06:39:37;;;;;;;3.37;1.00;;;;;;;6.88;100.00;99327.19;5479846;26;20495;-69
2024/04/16 06:42:03;;;;;;;2.67;1.03;;;;;;;6.83;100.00;99331.59;5479411;26;20223;-67
2024/04/16 06:44:31;;;;;;;2.50;0.80;;;;;;;6.80;100.00;99337.59;5478577;26;20465;-66
2024/04/16 06:46:57;;;;;;;3.43;1.03;;;;;;;6.78;100.00;99339.78;5479272;26;20563;-66
2024/04/16 06:49:26;;;;;;;2.30;0.70;;;;;;;6.66;100.00;99338.75;5479365;26;20524;-66
2024/04/16 06:51:54;;;;;;;3.00;1.13;;;;;;;6.48;100.00;99335.13;5479404;26;20336;-68
2024/04/16 06:54:22;;;;;;;2.83;0.57;;;;;;;6.44;100.00;99334.94;5479026;26;20536;-67
2024/04/16 06:56:48;;;;;;;3.50;1.70;;;;;;;6.39;100.00;99328.91;5478956;26;20843;-67
2024/04/16 06:59:16;;;;;;;2.93;1.37;;;;;;;6.41;100.00;99329.38;5478907;26;20520;-66
2024/04/16 07:01:42;;;;;;;3.10;1.10;;;;;;;6.44;100.00;99331.47;5479169;26;20311;-67
2024/04/16 07:04:13;;;;;;;3.77;1.53;;;;;;;6.51;100.00;99334.53;5479151;26;20484;-67
2024/04/16 07:06:38;;;;;;;2.37;0.83;;;;;;;6.55;100.00;99343.56;5479148;26;20215;-66
2024/04/16 07:09:09;;;;;;;3.73;1.70;;;;;;;6.59;100.00;99336.47;5478614;26;20453;-66
2024/04/16 07:11:35;;;;;;;4.17;1.70;;;;;;;6.60;100.00;99337.25;5478665;26;20578;-66
2024/04/16 07:14:03;;;;;;;2.90;1.33;;;;;;;6.59;100.00;99341.84;5478542;26;20464;-67
2024/04/16 07:16:29;;;;;;;3.13;1.67;;;;;;;6.57;100.00;99339.47;5474872;26;20343;-66
2024/04/16 07:18:57;;;;;;;3.80;1.40;;;;;;;6.63;100.00;99342.03;5477954;26;20490;-65
2024/04/16 07:21:23;;;;;;;6.03;2.57;;;;;;;6.58;100.00;99351.81;5478856;26;20227;-66
2024/04/16 07:23:51;;;;;;;4.60;1.43;;;;;;;6.56;100.00;99343.28;5478796;26;20528;-66
2024/04/16 07:26:20;;;;;;;5.10;2.23;;;;;;;6.53;100.00;99348.47;5478612;26;20571;-65
2024/04/16 07:28:48;;;;;;;3.67;1.17;;;;;;;6.57;100.00;99354.81;5455354;26;20502;-65
2024/04/16 07:31:14;;;;;;;3.10;1.10;;;;;;;6.61;100.00;99345.06;5442387;26;20442;-66
2024/04/16 07:33:42;;;;;;;7.03;2.20;;;;;;;6.68;100.00;99350.00;5442265;26;20469;-66
2024/04/16 07:36:08;;;;;;;7.57;2.93;;;;;;;6.81;100.00;99343.75;5471655;26;20243;-65
2024/04/16 07:38:37;;;;;;;3.43;1.40;;;;;;;6.85;100.00;99344.72;5478500;26;20456;-65
2024/04/16 07:41:03;;;;;;;3.20;1.40;;;;;;;6.94;100.00;99340.19;5480451;26;20456;-66
2024/04/16 07:43:34;;;;;;;2.90;1.30;;;;;;;6.99;100.00;99344.66;5482278;25;20509;-67
2024/04/16 07:46:00;;;;;;;4.90;2.10;;;;;;;7.04;100.00;99350.72;5455342;26;20457;-68
2024/04/16 07:48:28;;;;;;;4.90;1.50;;;;;;;7.06;100.00;99353.09;5445691;26;20527;-69
2024/04/16 07:50:54;;;;;;;3.50;1.30;;;;;;;7.05;100.00;99355.00;5445788;26;20220;-70
2024/04/16 07:53:22;;;;;;;3.77;1.40;;;;;;;7.10;100.00;99356.78;5475539;26;21043;-70
2024/04/16 07:55:48;;;;;;;6.20;2.17;;;;;;;7.23;100.00;99355.91;5482234;26;20215;-72
2024/04/16 07:58:16;;;;;;;3.30;1.87;;;;;;;7.27;100.00;99364.16;5481875;26;21007;-69
2024/04/16 08:00:44;;;;;;;4.83;2.10;;;;;;;7.34;100.00;99361.81;5481666;26;20711;-69
2024/04/16 08:03:12;;;;;;;2.80;1.57;;;;;;;7.41;100.00;99362.16;5481107;26;20931;-68
2024/04/16 08:05:38;;;;;;;3.00;1.53;;;;;;;7.48;100.00;99364.41;5481856;26;20456;-68
2024/04/16 08:08:07;;;;;;;2.30;0.80;;;;;;;7.46;100.00;99367.41;5481706;26;20520;-68
2024/04/16 08:10:33;;;;;;;2.27;0.67;;;;;;;7.44;100.00;99383.09;5481760;26;20216;-69
2024/04/16 08:13:01;;;;;;;2.87;1.13;;;;;;;7.42;100.00;99396.06;5481250;26;20871;-68
2024/04/16 08:15:26;;;;;;;2.90;1.00;;;;;;;7.31;100.00;99390.16;5481711;26;20231;-69
2024/04/16 08:17:57;;;;;;;4.50;1.13;;;;;;;7.12;100.00;99396.84;5481591;26;20465;-69
2024/04/16 08:20:23;;;;;;;3.30;1.40;;;;;;;6.90;100.00;99401.13;5481634;26;20250;-70
2024/04/16 08:22:51;;;;;;;4.43;1.33;;;;;;;6.74;100.00;99397.22;5481707;26;20461;-70
2024/04/16 08:25:17;;;;;;;9.80;1.93;;;;;;;6.64;100.00;99392.88;5481011;26;20228;-70
2024/04/16 08:27:45;;;;;;;4.13;1.40;;;;;;;6.56;100.00;99402.47;5481468;26;20444;-70
2024/04/16 08:30:11;;;;;;;3.20;1.60;;;;;;;6.58;100.00;99396.75;5481524;26;20245;-70
2024/04/16 08:32:39;;;;;;;3.80;1.53;;;;;;;6.59;100.00;99398.34;5481416;26;20461;-70
2024/04/16 08:35:11;;;;;;;3.80;2.20;;;;;;;6.62;100.00;99400.44;5480883;26;20573;-70
2024/04/16 08:37:40;;;;;;;3.70;1.10;;;;;;;6.68;100.00;99409.19;5481165;26;20480;-70
2024/04/16 08:40:09;;;;;;;9.70;2.27;;;;;;;6.71;100.00;99411.28;5481309;26;20456;-70
2024/04/16 08:42:38;;;;;;;5.60;1.77;;;;;;;6.74;100.00;99408.00;5481475;26;20526;-68
2024/04/16 08:45:05;;;;;;;4.03;1.97;;;;;;;6.80;100.00;99401.38;5508254;20;20499;-67
2024/04/16 08:47:34;;;;;;;2.40;0.70;;;;;;;6.90;100.00;99403.81;5527931;26;20510;-67
2024/04/16 08:50:02;;;;;;;3.80;1.60;;;;;;;6.98;100.00;99415.75;5528320;26;20564;-67
2024/04/16 08:52:34;;;;;;;10.10;3.00;;;;;;;7.11;100.00;99414.91;5512212;26;21002;-67
2024/04/16 08:55:00;;;;;;;3.17;1.60;;;;;;;7.21;100.00;99408.47;5521655;25;21024;-67
2024/04/16 08:57:30;;;;;;;4.13;1.80;;;;;;;7.37;100.00;99417.75;5528455;25;20506;-67
2024/04/16 08:59:56;;;;;;;6.10;2.10;;;;;;;7.54;100.00;99415.16;5528049;26;20498;-67
2024/04/16 09:02:28;;;;;;;7.83;2.43;;;;;;;7.82;100.00;99415.75;5550403;25;20520;-68
2024/04/16 09:04:58;;;;;;;4.20;2.20;;;;;;;8.03;100.00;99412.50;5528123;26;20226;-67
2024/04/16 09:07:27;;;;;;;2.83;1.17;;;;;;;8.21;100.00;99414.13;5521090;25;20595;-68
2024/04/16 09:09:55;;;;;;;4.37;1.10;;;;;;;8.43;100.00;99412.47;5517836;25;20516;-67
2024/04/16 09:12:24;;;;;;;2.70;1.17;;;;;;;8.67;100.00;99412.00;5502941;26;21062;-67
2024/04/16 09:14:49;;;;;;;2.50;0.90;;;;;;;8.81;100.00;99405.34;5527964;25;20545;-67
2024/04/16 09:17:18;;;;;;;2.70;0.97;;;;;;;8.92;100.00;99410.41;5528406;25;20451;-67
2024/04/16 09:19:43;;;;;;;3.37;1.47;;;;;;;8.93;100.00;99414.72;5528132;25;20257;-67
2024/04/16 09:22:12;;;;;;;3.33;1.30;;;;;;;8.99;100.00;99418.84;5528210;25;20443;-67
2024/04/16 09:24:37;;;;;;;2.97;1.20;;;;;;;8.98;100.00;99417.25;5527683;25;20234;-67
2024/04/16 09:27:12;;;;;;;9.03;1.60;;;;;;;8.84;100.00;99418.19;5527763;25;21038;-66
2024/04/16 09:29:38;;;;;;;2.60;0.73;;;;;;;8.71;100.00;99412.97;5528283;25;20268;-69
2024/04/16 09:32:07;;;;;;;2.93;0.90;;;;;;;8.64;100.00;99413.44;5527958;25;20454;-67
2024/04/16 09:34:33;;;;;;;3.10;1.13;;;;;;;8.54;100.00;99416.44;5528103;25;20618;-67
2024/04/16 09:37:02;;;;;;;2.40;0.80;;;;;;;8.52;100.00;99421.38;5527423;26;20981;-66
2024/04/16 09:39:27;;;;;;;4.43;1.43;;;;;;;8.44;100.00;99424.84;5527688;25;20447;-66
2024/04/16 09:41:56;;;;;;;2.27;0.60;;;;;;;8.45;100.00;99426.44;5527693;25;21014;-66
2024/04/16 09:44:25;;;;;;;2.63;0.70;;;;;;;8.66;100.00;99416.59;5528455;25;20349;-66
2024/04/16 09:46:54;;;;;;;2.20;0.60;;;;;;;8.89;100.00;99419.94;5564905;25;20525;-67
2024/04/16 09:49:21;;;;;;;4.37;0.80;;;;;;;9.10;100.00;99412.00;5564886;25;20445;-66
2024/04/16 09:51:50;;;;;;;2.70;0.73;;;;;;;9.19;100.00;99411.97;5564963;25;20465;-67
2024/04/16 09:54:17;;;;;;;3.47;1.33;;;;;;;9.29;100.00;99407.03;5564622;25;20522;-66
2024/04/16 09:56:48;;;;;;;2.20;0.60;;;;;;;9.46;100.00;99405.41;5562518;25;20838;-66
2024/04/16 09:59:14;;;;;;;2.20;0.50;;;;;;;9.69;100.00;99417.56;5561855;25;21036;-66
2024/04/16 10:01:47;;;;;;;2.70;0.70;;;;;;;9.60;96.08;99416.78;5542029;25;20917;-66
2024/04/16 10:04:14;;;;;;;3.40;0.97;;;;;;;9.39;87.48;99413.22;5528462;25;20459;-66
2024/04/16 10:06:43;;;;;;;2.20;0.60;;;;;;;9.20;90.29;99417.06;5564342;25;20524;-66
2024/04/16 10:09:09;;;;;;;2.10;0.50;;;;;;;9.11;92.15;99416.28;5564456;25;20446;-65
2024/04/16 10:11:38;;;;;;;3.87;1.00;;;;;;;9.12;90.15;99414.38;5564388;25;20441;-65
2024/04/16 10:14:04;;;;;;;3.07;0.70;;;;;;;9.20;87.11;99427.84;5564345;25;20457;-65
2024/04/16 10:16:33;;;;;;;3.17;0.90;;;;;;;9.21;86.18;99431.34;5561677;25;20514;-65
2024/04/16 10:19:05;;;;;;;2.50;0.70;;;;;;;9.23;87.17;99426.44;5536619;25;20214;-65
2024/04/16 10:21:41;;;;;;;2.30;0.63;;;;;;;9.28;85.37;99424.34;5542063;25;21059;-65
2024/04/16 10:24:08;;;;;;;2.20;0.40;;;;;;;9.31;85.55;99426.44;5564334;25;20494;-65
2024/04/16 10:26:39;;;;;;;2.40;0.50;;;;;;;9.47;87.38;99431.31;5564380;25;20449;-65
2024/04/16 10:29:11;;;;;;;2.53;0.80;;;;;;;9.59;86.54;99429.53;5564438;25;20449;-65
2024/04/16 10:31:40;;;;;;;6.23;0.80;;;;;;;9.79;85.64;99427.25;5564313;25;20558;-65
2024/04/16 10:34:18;;;;;;;2.50;0.70;;;;;;;9.97;82.55;99430.69;5564098;25;20469;-65
2024/04/16 10:36:46;;;;;;;2.20;0.57;;;;;;;10.03;83.96;99419.34;5563965;25;20806;-65
2024/04/16 10:39:13;;;;;;;2.70;0.87;;;;;;;10.02;83.59;99419.66;5564120;25;20463;-65
2024/04/16 10:41:53;;;;;;;2.50;0.90;;;;;;;10.03;80.90;99426.66;5564095;25;20454;-68
2024/04/16 10:44:20;;;;;;;2.40;0.50;;;;;;;10.13;80.08;99422.78;5563978;25;20513;-69
2024/04/16 10:46:49;;;;;;;2.93;0.90;;;;;;;10.30;80.55;99420.00;5563736;25;20457;-66
2024/04/16 10:49:22;;;;;;;2.10;0.40;;;;;;;10.64;82.21;99427.13;5563750;25;21055;-66
2024/04/16 10:51:51;;;;;;;2.20;0.50;;;;;;;10.82;76.00;99419.66;5563845;25;20510;-67
2024/04/16 10:54:17;;;;;;;2.20;0.50;;;;;;;10.91;74.25;99433.94;5563734;25;21131;-67
2024/04/16 10:56:45;;;;;;;2.20;0.50;;;;;;;10.90;71.26;99428.84;5563772;25;20453;-69
2024/04/16 10:59:12;;;;;;;2.10;0.50;;;;;;;10.82;73.44;99427.78;5563884;25;20213;-66
2024/04/16 11:01:41;;;;;;;2.10;0.40;;;;;;;10.73;70.64;99433.28;5563765;25;20510;-66
2024/04/16 11:04:10;;;;;;;5.80;0.90;;;;;;;10.78;70.01;99437.69;5563645;25;20528;-66
2024/04/16 11:06:42;;;;;;;3.27;0.70;;;;;;;10.79;71.08;99436.56;5563256;25;20574;-66
2024/04/16 11:09:08;;;;;;;2.30;0.53;;;;;;;10.78;70.80;99441.19;5563427;25;20461;-66
2024/04/16 11:11:38;;;;;;;2.20;0.50;;;;;;;10.63;72.28;99438.28;5563553;25;20457;-66
2024/04/16 11:14:04;;;;;;;2.33;0.60;;;;;;;10.69;75.56;99437.75;5563718;25;20851;-66
2024/04/16 11:16:33;;;;;;;4.40;0.63;;;;;;;10.75;73.10;99447.25;5566840;25;20595;-66
2024/04/16 11:19:00;;;;;;;2.20;0.60;;;;;;;10.79;72.99;99442.78;5567070;25;20465;-66
2024/04/16 11:21:31;;;;;;;2.20;0.40;;;;;;;10.96;73.14;99441.06;5567167;25;20453;-66
2024/04/16 11:24:01;;;;;;;2.20;0.57;;;;;;;11.14;72.42;99439.78;5567044;25;20462;-66
2024/04/16 11:26:30;;;;;;;3.33;0.63;;;;;;;11.15;69.37;99435.94;5567145;25;20457;-66
2024/04/16 11:28:55;;;;;;;2.23;0.53;;;;;;;11.07;72.07;99424.06;5566481;25;21047;-66
2024/04/16 11:31:24;;;;;;;3.57;0.90;;;;;;;11.09;71.66;99426.44;5566891;25;20458;-66
2024/04/16 11:33:49;;;;;;;2.20;0.50;;;;;;;11.11;68.57;99426.88;5566622;25;20279;-66
2024/04/16 11:36:19;;;;;;;2.30;0.53;;;;;;;11.20;65.34;99432.22;5566935;25;20449;-66
2024/04/16 11:38:44;;;;;;;2.40;0.50;;;;;;;11.20;66.72;99437.66;5566632;25;20213;-66